首页
METAR-TAF:

METAR-TAF

机场 :

Owatonna Degner Regional Airport

Owatonna, 明尼蘇達州, 美国

纬度: 44-07N, 经度: 093-15W, 海拔: 350米

当前天气观测

该预报发布于15分钟前的06:33 UTC
静风
温度 2°C
湿度 93%
气压 1005 hPa
能見度: 4.8公里
小雨

METAR: KOWA 190633Z AUTO 00000KT 3SM -RA 02/01 A2969 RMK AO2 SKY OBSCURED P0001

时间: 00:48 (06:48 UTC)


TAF: 丢失

超过4000个机场的气象观测和天气预报(METAR&TAF报告)。

可查询的气象台以黄色和红色小点在地图上表示。

将鼠标移到小点上方,可查看气象台名称。

然后点击查看天气观测和预报。

如需切换地图:点击带黑十字的绿色按钮放大地图;点击带横线的绿色按钮缩小地图;或者点击绿色箭头查看邻近地区的地图。


METAR-TAF: